createdAt,value
2019-04-21T00:00:58.636Z,3.97
2019-04-21T03:08:07.152Z,4.50
2019-04-21T03:10:35.495Z,5.15
2019-04-21T03:13:03.540Z,5.30
2019-04-21T03:15:53.452Z,5.10
2019-04-21T03:18:04.886Z,5.97
2019-04-21T03:23:11.273Z,4.70
2019-04-21T03:25:47.384Z,5.03
2019-04-21T03:28:11.138Z,5.10
2019-04-21T03:31:05.977Z,5.60
2019-04-21T03:33:52.875Z,5.12
2019-04-21T03:38:17.262Z,5.53
2019-04-21T03:43:13.672Z,5.17
2019-04-21T03:50:39.797Z,4.80
2019-04-21T03:55:52.913Z,5.50
2019-04-21T03:58:24.012Z,5.22
2019-04-21T04:01:16.588Z,5.37
2019-04-21T04:04:34.211Z,5.58
2019-04-21T04:10:03.967Z,6.22
2019-04-21T04:12:26.882Z,5.80
2019-04-21T04:14:55.341Z,5.70
2019-04-21T04:17:26.651Z,5.75
2019-04-21T04:20:22.449Z,5.40
2019-04-21T04:22:51.805Z,5.42
2019-04-21T04:25:04.612Z,5.50
2019-04-21T04:27:47.045Z,5.85
2019-04-21T04:30:08.029Z,5.40
2019-04-21T04:32:38.725Z,5.53
2019-04-21T04:35:25.931Z,5.75
2019-04-21T04:37:36.714Z,6.12
2019-04-21T04:40:31.501Z,5.75
2019-04-21T04:43:05.172Z,5.60
2019-04-21T04:45:38.695Z,5.60
2019-04-21T04:48:05.531Z,5.47
2019-04-21T04:50:48.095Z,5.53
2019-04-21T04:53:01.501Z,6.45
2019-04-21T04:55:38.969Z,5.85
2019-04-21T05:06:27.424Z,6.33
2019-04-21T05:09:04.255Z,6.33
2019-04-21T05:11:31.055Z,6.03
2019-04-21T05:13:55.349Z,6.10
2019-04-21T05:16:24.448Z,5.85
2019-04-21T05:21:32.887Z,6.75
2019-04-21T05:23:42.864Z,6.20
2019-04-21T05:26:10.907Z,6.37
2019-04-21T05:28:40.881Z,6.92
2019-04-21T05:31:27.092Z,7.65
2019-04-21T05:34:04.767Z,7.97
2019-04-21T05:36:52.029Z,7.25
2019-04-21T05:39:27.422Z,7.40
2019-04-21T05:41:47.795Z,7.37
2019-04-21T05:44:34.812Z,8.05
2019-04-21T05:47:14.227Z,7.70
2019-04-21T05:49:35.430Z,6.23
2019-04-21T05:52:05.462Z,5.90
2019-04-21T05:54:45.669Z,6.90
2019-04-21T05:57:08.648Z,7.93
2019-04-21T05:59:49.194Z,7.40
2019-04-21T06:02:20.985Z,7.40
2019-04-21T06:05:05.849Z,7.90
2019-04-21T06:07:18.802Z,8.50
2019-04-21T06:09:51.398Z,7.87
2019-04-21T06:35:11.188Z,7.33
2019-04-21T06:40:10.435Z,7.65
2019-04-21T06:42:26.300Z,6.70
2019-04-21T06:47:36.083Z,6.80
2019-04-21T06:50:01.978Z,7.27
2019-04-21T06:52:47.689Z,7.00
2019-04-21T06:57:35.459Z,6.60
2019-04-21T07:00:02.888Z,6.77
2019-04-21T07:02:43.892Z,6.53
2019-04-21T07:05:07.797Z,7.20
2019-04-21T07:07:35.368Z,7.60
2019-04-21T07:10:16.892Z,6.87
2019-04-21T07:12:41.611Z,6.90
2019-04-21T07:15:14.179Z,7.92
2019-04-21T07:17:38.928Z,7.27
2019-04-21T07:20:32.880Z,7.47
2019-04-21T07:23:07.551Z,7.53
2019-04-21T07:25:34.351Z,6.97
2019-04-21T07:27:58.018Z,6.27
2019-04-21T07:30:38.042Z,6.70
2019-04-21T07:33:22.111Z,8.37
2019-04-21T07:35:32.205Z,6.70
2019-04-21T07:38:04.351Z,6.50
2019-04-21T07:40:28.812Z,6.63
2019-04-21T07:43:00.880Z,7.47
2019-04-21T07:45:33.475Z,6.57
2019-04-21T07:48:14.438Z,6.80
2019-04-21T07:50:51.964Z,6.40
2019-04-21T07:53:36.515Z,6.23
2019-04-21T07:55:41.099Z,6.03
2019-04-21T07:58:26.181Z,6.10
2019-04-21T08:01:18.002Z,6.10
2019-04-21T08:03:34.913Z,5.70
2019-04-21T08:06:08.371Z,5.90
2019-04-21T08:08:33.592Z,5.73
2019-04-21T08:11:07.447Z,6.63
2019-04-21T08:13:39.653Z,6.30
2019-04-21T08:18:42.402Z,6.97
2019-04-21T08:21:05.794Z,6.10
2019-04-21T08:23:36.830Z,6.53
2019-04-21T08:43:42.741Z,6.10
2019-04-21T08:46:16.623Z,6.00
2019-04-21T08:48:42.047Z,5.33
2019-04-21T08:53:49.208Z,4.80
2019-04-21T08:56:43.070Z,5.70
2019-04-21T08:59:31.762Z,5.60
2019-04-21T09:02:10.837Z,5.33
2019-04-21T09:04:34.133Z,5.60
2019-04-21T09:07:29.079Z,5.87
2019-04-21T09:09:41.205Z,5.90
2019-04-21T09:12:10.820Z,5.58
2019-04-21T09:14:41.500Z,5.70
2019-04-21T09:17:08.022Z,5.13
2019-04-21T09:19:53.419Z,5.00
2019-04-21T09:22:12.813Z,4.93
2019-04-21T09:24:46.985Z,5.30
2019-04-21T09:27:14.203Z,4.40
2019-04-21T09:29:35.440Z,4.27
2019-04-21T09:32:00.025Z,4.47
2019-04-21T09:34:33.243Z,3.73
2019-04-21T09:37:16.453Z,4.33
2019-04-21T09:39:33.240Z,3.70
2019-04-21T09:42:03.248Z,4.70
2019-04-21T09:44:38.210Z,4.50
2019-04-21T09:47:03.804Z,3.70
2019-04-21T09:49:35.619Z,4.30
2019-04-21T09:52:07.925Z,3.33
2019-04-21T09:54:46.164Z,3.63
2019-04-21T09:57:14.148Z,3.83
2019-04-21T09:59:41.765Z,3.70
2019-04-21T10:02:16.057Z,4.20
2019-04-21T10:04:40.179Z,3.70
2019-04-21T10:07:21.917Z,3.57
2019-04-21T10:09:40.449Z,3.70
2019-04-21T10:12:09.789Z,4.10
2019-04-21T10:14:38.996Z,3.53
2019-04-21T10:17:30.647Z,4.00
2019-04-21T10:20:00.708Z,3.40
2019-04-21T10:22:30.999Z,4.00
2019-04-21T10:25:00.606Z,3.97
2019-04-21T10:27:29.724Z,3.53
2019-04-21T10:29:58.730Z,3.63
2019-04-21T10:32:28.226Z,4.40
2019-04-21T10:34:57.403Z,3.90
2019-04-21T10:37:40.097Z,4.43
2019-04-21T10:39:57.789Z,3.90
2019-04-21T10:42:27.249Z,3.93
2019-04-21T10:44:56.882Z,3.47
2019-04-21T10:47:26.968Z,3.50
2019-04-21T10:49:56.143Z,3.07
2019-04-21T10:52:47.011Z,3.40
2019-04-21T10:55:33.811Z,3.40
2019-04-21T10:58:06.220Z,3.40
2019-04-21T11:00:36.433Z,3.63
2019-04-21T11:03:24.844Z,3.60
2019-04-21T11:05:54.702Z,3.10
2019-04-21T11:08:30.696Z,3.50
2019-04-21T11:10:56.027Z,2.77
2019-04-21T11:13:26.256Z,3.07
2019-04-21T11:15:55.429Z,3.83
2019-04-21T11:18:24.497Z,3.53
2019-04-21T11:20:53.510Z,3.80
2019-04-21T11:23:22.626Z,3.00
2019-04-21T11:25:52.027Z,3.80
2019-04-21T11:28:22.899Z,3.30
2019-04-21T11:30:53.079Z,3.00
2019-04-21T11:33:22.808Z,3.30
2019-04-21T11:35:53.154Z,3.17
2019-04-21T11:38:31.844Z,2.80
2019-04-21T11:41:00.041Z,4.00
2019-04-21T11:43:29.170Z,3.50
2019-04-21T11:45:58.302Z,2.80
2019-04-21T11:48:28.545Z,2.90
2019-04-21T11:50:57.612Z,4.07
2019-04-21T11:53:26.613Z,3.50
2019-04-21T11:55:56.935Z,4.30
2019-04-21T11:58:26.355Z,3.70
2019-04-21T12:01:00.789Z,3.43
2019-04-21T12:03:31.568Z,4.23
2019-04-21T12:06:01.550Z,3.20
2019-04-21T12:08:39.270Z,3.60
2019-04-21T12:11:03.126Z,3.37
2019-04-21T12:13:32.375Z,3.87
2019-04-21T12:16:01.442Z,3.77
2019-04-21T12:18:32.090Z,3.67
2019-04-21T12:21:01.345Z,4.03
2019-04-21T12:23:30.773Z,3.20
2019-04-21T12:26:01.106Z,3.83
2019-04-21T12:28:30.583Z,4.00
2019-04-21T12:31:00.077Z,3.70
2019-04-21T12:33:51.946Z,3.97
2019-04-21T12:53:41.735Z,4.23
2019-04-21T12:56:11.801Z,3.30
2019-04-21T12:58:41.515Z,4.60
2019-04-21T13:01:10.856Z,3.70
2019-04-21T13:03:39.880Z,4.50
2019-04-21T13:06:09.950Z,3.97
2019-04-21T13:08:50.926Z,4.40
2019-04-21T13:11:11.348Z,3.80
2019-04-21T13:13:41.922Z,3.60
2019-04-21T13:16:11.612Z,3.80
2019-04-21T13:18:41.745Z,4.03
2019-04-21T13:21:12.028Z,3.33
2019-04-21T13:23:42.959Z,3.83
2019-04-21T13:26:13.044Z,3.67
2019-04-21T13:28:42.596Z,4.03
2019-04-21T13:31:12.020Z,3.17
2019-04-21T13:33:42.028Z,3.67
2019-04-21T13:36:11.831Z,4.27
2019-04-21T13:39:33.083Z,3.30
2019-04-21T13:41:45.370Z,4.40
2019-04-21T13:44:13.068Z,3.03
2019-04-21T13:46:43.146Z,3.63
2019-04-21T13:49:13.353Z,4.03
2019-04-21T13:51:43.978Z,3.80
2019-04-21T13:54:13.875Z,4.37
2019-04-21T13:56:44.746Z,3.53
2019-04-21T13:59:14.127Z,3.57
2019-04-21T14:01:45.561Z,3.90
2019-04-21T14:04:15.849Z,3.70
2019-04-21T14:06:45.220Z,4.27
2019-04-21T14:09:15.602Z,4.23
2019-04-21T14:11:45.350Z,4.23
2019-04-21T14:14:14.648Z,3.87
2019-04-21T14:16:44.361Z,4.03
2019-04-21T14:19:15.330Z,3.13
2019-04-21T14:21:47.451Z,4.50
2019-04-21T14:24:17.026Z,3.13
2019-04-21T14:26:47.853Z,3.57
2019-04-21T14:29:17.587Z,3.60
2019-04-21T14:31:48.206Z,3.70
2019-04-21T14:34:17.812Z,3.50
2019-04-21T14:36:46.861Z,3.90
2019-04-21T14:39:16.669Z,4.10
2019-04-21T14:41:46.374Z,3.90
2019-04-21T14:44:15.606Z,3.40
2019-04-21T14:47:03.080Z,3.40
2019-04-21T14:49:42.347Z,3.47
2019-04-21T14:52:16.880Z,3.83
2019-04-21T14:55:14.426Z,3.37
2019-04-21T14:57:43.605Z,3.83
2019-04-21T15:00:15.443Z,4.33
2019-04-21T15:02:45.559Z,3.70
2019-04-21T15:05:15.671Z,3.30
2019-04-21T15:07:45.542Z,4.03
2019-04-21T15:10:19.084Z,3.50
2019-04-21T15:12:45.727Z,3.90
2019-04-21T15:15:15.960Z,3.70
2019-04-21T15:17:46.261Z,4.20
2019-04-21T15:20:17.329Z,3.60
2019-04-21T15:22:46.301Z,4.47
2019-04-21T15:25:16.232Z,3.10
2019-04-21T15:27:46.532Z,3.40
2019-04-21T15:30:16.515Z,3.50
2019-04-21T15:32:46.479Z,3.33
2019-04-21T15:35:15.651Z,3.20
2019-04-21T15:37:46.243Z,3.17
2019-04-21T15:40:26.358Z,3.00
2019-04-21T15:42:46.556Z,2.93
2019-04-21T15:45:16.792Z,2.87
2019-04-21T15:47:46.132Z,3.40
2019-04-21T15:50:19.201Z,3.20
2019-04-21T15:52:47.683Z,3.67
2019-04-21T15:55:39.119Z,3.30
2019-04-21T15:58:28.382Z,3.30
2019-04-21T16:01:16.468Z,3.00
2019-04-21T16:03:46.934Z,3.53
2019-04-21T16:06:17.374Z,3.40
2019-04-21T16:08:50.207Z,3.80
2019-04-21T16:11:17.832Z,3.80
2019-04-21T16:13:47.831Z,3.97
2019-04-21T16:16:17.352Z,3.40
2019-04-21T16:18:47.867Z,3.57
2019-04-21T16:21:18.069Z,3.90
2019-04-21T16:23:48.553Z,3.50
2019-04-21T16:26:17.712Z,4.43
2019-04-21T16:28:46.973Z,4.03
2019-04-21T16:31:16.438Z,3.70
2019-04-21T16:33:45.523Z,3.53
2019-04-21T16:36:15.510Z,3.00
2019-04-21T16:38:45.551Z,3.67
2019-04-21T16:41:14.584Z,3.77
2019-04-21T16:43:44.968Z,3.43
2019-04-21T16:46:15.711Z,3.60
2019-04-21T16:48:46.010Z,4.60
2019-04-21T16:51:15.394Z,2.90
2019-04-21T16:53:52.204Z,3.20
2019-04-21T16:56:39.648Z,3.70
2019-04-21T16:59:28.809Z,3.03
2019-04-21T17:01:58.758Z,3.47
2019-04-21T17:04:28.710Z,3.00
2019-04-21T17:06:58.938Z,3.57
2019-04-21T17:09:28.565Z,3.60
2019-04-21T17:12:01.840Z,4.00
2019-04-21T17:14:48.186Z,3.17
2019-04-21T17:17:36.844Z,3.77
2019-04-21T17:19:35.868Z,3.20
2019-04-21T17:22:01.987Z,3.60
2019-04-21T17:24:32.466Z,3.07
2019-04-21T17:27:02.863Z,3.83
2019-04-21T17:29:32.520Z,4.10
2019-04-21T17:32:04.707Z,3.40
2019-04-21T17:34:34.296Z,2.60
2019-04-21T17:37:03.752Z,2.57
2019-04-21T17:39:34.504Z,2.77
2019-04-21T17:42:16.527Z,2.97
2019-04-21T17:44:35.141Z,3.10
2019-04-21T17:47:11.355Z,2.90
2019-04-21T17:49:37.146Z,2.90
2019-04-21T17:52:25.516Z,3.00
2019-04-21T17:55:26.184Z,3.00
2019-04-21T17:58:09.640Z,3.30
2019-04-21T18:01:09.223Z,2.73
2019-04-21T18:03:27.607Z,3.33
2019-04-21T18:05:42.144Z,3.20
2019-04-21T18:08:18.474Z,3.40
2019-04-21T18:10:45.791Z,3.27
2019-04-21T18:13:07.818Z,3.17
2019-04-21T18:15:50.727Z,3.07
2019-04-21T18:18:02.867Z,3.20
2019-04-21T18:20:35.387Z,2.70
2019-04-21T18:23:31.401Z,2.83
2019-04-21T18:25:56.223Z,3.07
2019-04-21T18:28:18.638Z,2.37
2019-04-21T18:31:14.627Z,2.97
2019-04-21T18:33:49.428Z,2.70
2019-04-21T18:36:34.083Z,2.10
2019-04-21T18:39:33.649Z,2.20
2019-04-21T18:42:23.207Z,2.20
2019-04-21T18:45:32.729Z,2.33
2019-04-21T18:47:58.526Z,2.80
2019-04-21T18:50:39.145Z,2.30
2019-04-21T18:53:16.686Z,2.43
2019-04-21T18:55:43.509Z,3.47
2019-04-21T18:58:10.717Z,2.98
2019-04-21T19:00:40.572Z,2.53
2019-04-21T19:03:11.792Z,2.40
2019-04-21T19:05:47.926Z,2.65
2019-04-21T19:08:26.390Z,2.98
2019-04-21T19:11:02.508Z,2.87
2019-04-21T19:16:22.591Z,2.75
2019-04-21T19:18:39.731Z,2.83
2019-04-21T19:21:02.394Z,3.20
2019-04-21T19:23:46.861Z,3.17
2019-04-21T19:26:20.285Z,3.90
2019-04-21T19:28:41.868Z,7.03
2019-04-21T19:31:10.987Z,5.10
2019-04-21T19:33:34.722Z,4.12
2019-04-21T19:35:49.788Z,3.50
2019-04-21T19:38:30.146Z,3.77
2019-04-21T19:41:07.453Z,4.47
2019-04-21T19:43:41.429Z,4.80
2019-04-21T19:46:11.788Z,4.60
2019-04-21T19:48:52.663Z,5.55
2019-04-21T19:51:10.425Z,5.60
2019-04-21T19:53:42.134Z,6.28
2019-04-21T19:55:58.318Z,6.45
2019-04-21T19:58:33.010Z,6.57
2019-04-21T20:00:59.738Z,5.70
2019-04-21T20:03:28.872Z,5.30
2019-04-21T20:06:08.622Z,5.17
2019-04-21T20:08:43.283Z,4.90
2019-04-21T20:11:20.244Z,5.37
2019-04-21T20:14:33.962Z,3.83
2019-04-21T20:16:21.529Z,4.10
2019-04-21T20:18:39.870Z,5.07
2019-04-21T20:21:04.013Z,4.40
2019-04-21T20:23:35.924Z,4.60
2019-04-21T20:26:06.482Z,4.53
2019-04-21T20:29:05.548Z,4.30
2019-04-21T20:31:42.745Z,3.73
2019-04-21T20:34:22.979Z,4.57
2019-04-21T20:36:51.853Z,4.50
2019-04-21T20:39:05.956Z,4.10
2019-04-21T20:41:40.612Z,4.10
2019-04-21T20:44:18.464Z,3.83
2019-04-21T20:46:45.060Z,4.03
2019-04-21T20:49:15.704Z,3.50
2019-04-21T20:52:01.196Z,3.33
2019-04-21T20:54:20.559Z,3.57
2019-04-21T20:56:51.491Z,2.80
2019-04-21T20:59:19.425Z,3.20
2019-04-21T23:11:37.434Z,3.50
2019-04-21T23:14:04.410Z,2.73
2019-04-21T23:16:35.335Z,2.93
